sensor_id;sensor_type;location;lat;lon;timestamp;P1;durP1;ratioP1;P2;durP2;ratioP2
4244;SDS011;2136;48.502;9.194;2023-04-25T00:00:58;7.87;;;3.70;;
4244;SDS011;2136;48.502;9.194;2023-04-25T00:03:25;8.40;;;3.10;;
4244;SDS011;2136;48.502;9.194;2023-04-25T00:05:51;2.93;;;2.63;;
4244;SDS011;2136;48.502;9.194;2023-04-25T00:08:21;9.20;;;3.67;;
4244;SDS011;2136;48.502;9.194;2023-04-25T00:10:48;4.90;;;3.30;;
4244;SDS011;2136;48.502;9.194;2023-04-25T00:13:15;6.57;;;2.80;;
4244;SDS011;2136;48.502;9.194;2023-04-25T00:15:42;3.77;;;3.20;;
4244;SDS011;2136;48.502;9.194;2023-04-25T00:18:12;7.90;;;2.97;;
4244;SDS011;2136;48.502;9.194;2023-04-25T00:20:39;5.33;;;2.97;;
4244;SDS011;2136;48.502;9.194;2023-04-25T00:23:11;5.40;;;3.40;;
4244;SDS011;2136;48.502;9.194;2023-04-25T00:25:42;3.50;;;2.93;;
4244;SDS011;2136;48.502;9.194;2023-04-25T00:28:09;6.67;;;3.40;;
4244;SDS011;2136;48.502;9.194;2023-04-25T00:30:36;6.23;;;2.83;;
4244;SDS011;2136;48.502;9.194;2023-04-25T00:33:03;8.43;;;3.70;;
4244;SDS011;2136;48.502;9.194;2023-04-25T00:35:31;3.53;;;3.23;;
4244;SDS011;2136;48.502;9.194;2023-04-25T00:37:58;6.10;;;3.10;;
4244;SDS011;2136;48.502;9.194;2023-04-25T00:40:25;6.73;;;3.00;;
4244;SDS011;2136;48.502;9.194;2023-04-25T00:42:52;9.00;;;2.57;;
4244;SDS011;2136;48.502;9.194;2023-04-25T00:45:20;6.27;;;3.03;;
4244;SDS011;2136;48.502;9.194;2023-04-25T00:47:47;5.07;;;2.80;;
4244;SDS011;2136;48.502;9.194;2023-04-25T00:50:13;3.47;;;3.17;;
4244;SDS011;2136;48.502;9.194;2023-04-25T00:52:43;4.27;;;3.00;;
4244;SDS011;2136;48.502;9.194;2023-04-25T00:55:10;4.77;;;2.77;;
4244;SDS011;2136;48.502;9.194;2023-04-25T00:57:38;3.90;;;2.80;;
4244;SDS011;2136;48.502;9.194;2023-04-25T01:00:07;6.00;;;3.20;;
4244;SDS011;2136;48.502;9.194;2023-04-25T01:02:36;4.47;;;3.10;;
4244;SDS011;2136;48.502;9.194;2023-04-25T01:05:03;3.80;;;2.87;;
4244;SDS011;2136;48.502;9.194;2023-04-25T01:07:31;3.00;;;2.80;;
4244;SDS011;2136;48.502;9.194;2023-04-25T01:09:59;4.47;;;2.90;;
4244;SDS011;2136;48.502;9.194;2023-04-25T01:12:27;7.37;;;3.27;;
4244;SDS011;2136;48.502;9.194;2023-04-25T01:14:54;4.00;;;3.10;;
4244;SDS011;2136;48.502;9.194;2023-04-25T01:17:21;2.97;;;2.77;;
4244;SDS011;2136;48.502;9.194;2023-04-25T01:19:49;5.33;;;3.27;;
4244;SDS011;2136;48.502;9.194;2023-04-25T01:22:17;5.57;;;3.10;;
4244;SDS011;2136;48.502;9.194;2023-04-25T01:24:46;2.93;;;2.57;;
4244;SDS011;2136;48.502;9.194;2023-04-25T01:27:13;2.80;;;2.57;;
4244;SDS011;2136;48.502;9.194;2023-04-25T01:29:40;4.87;;;3.53;;
4244;SDS011;2136;48.502;9.194;2023-04-25T01:32:07;3.30;;;3.00;;
4244;SDS011;2136;48.502;9.194;2023-04-25T01:34:34;4.43;;;3.30;;
4244;SDS011;2136;48.502;9.194;2023-04-25T01:37:01;3.20;;;2.70;;
4244;SDS011;2136;48.502;9.194;2023-04-25T01:39:29;4.90;;;2.87;;
4244;SDS011;2136;48.502;9.194;2023-04-25T01:41:56;3.43;;;3.10;;
4244;SDS011;2136;48.502;9.194;2023-04-25T01:44:25;6.53;;;3.30;;
4244;SDS011;2136;48.502;9.194;2023-04-25T01:46:51;3.03;;;2.73;;
4244;SDS011;2136;48.502;9.194;2023-04-25T01:49:18;5.47;;;3.47;;
4244;SDS011;2136;48.502;9.194;2023-04-25T01:51:45;5.57;;;3.50;;
4244;SDS011;2136;48.502;9.194;2023-04-25T01:54:12;3.80;;;3.17;;
4244;SDS011;2136;48.502;9.194;2023-04-25T01:56:41;4.83;;;2.83;;
4244;SDS011;2136;48.502;9.194;2023-04-25T01:59:08;3.00;;;2.70;;
4244;SDS011;2136;48.502;9.194;2023-04-25T02:01:34;4.63;;;3.20;;
4244;SDS011;2136;48.502;9.194;2023-04-25T02:04:01;4.00;;;2.97;;
4244;SDS011;2136;48.502;9.194;2023-04-25T02:06:28;6.70;;;3.70;;
4244;SDS011;2136;48.502;9.194;2023-04-25T02:08:55;3.97;;;3.10;;
4244;SDS011;2136;48.502;9.194;2023-04-25T02:11:22;5.00;;;2.90;;
4244;SDS011;2136;48.502;9.194;2023-04-25T02:13:50;10.60;;;3.30;;
4244;SDS011;2136;48.502;9.194;2023-04-25T02:16:17;3.80;;;2.53;;
4244;SDS011;2136;48.502;9.194;2023-04-25T02:18:44;4.50;;;2.97;;
4244;SDS011;2136;48.502;9.194;2023-04-25T02:21:12;7.10;;;3.10;;
4244;SDS011;2136;48.502;9.194;2023-04-25T02:23:38;4.10;;;2.70;;
4244;SDS011;2136;48.502;9.194;2023-04-25T02:26:05;6.20;;;2.77;;
4244;SDS011;2136;48.502;9.194;2023-04-25T02:28:32;4.47;;;3.10;;
4244;SDS011;2136;48.502;9.194;2023-04-25T02:31:00;6.37;;;2.90;;
4244;SDS011;2136;48.502;9.194;2023-04-25T02:33:27;3.10;;;2.70;;
4244;SDS011;2136;48.502;9.194;2023-04-25T02:35:54;4.77;;;2.73;;
4244;SDS011;2136;48.502;9.194;2023-04-25T02:38:21;11.70;;;2.70;;
4244;SDS011;2136;48.502;9.194;2023-04-25T02:40:48;6.67;;;2.90;;
4244;SDS011;2136;48.502;9.194;2023-04-25T02:43:15;3.90;;;2.77;;
4244;SDS011;2136;48.502;9.194;2023-04-25T02:45:42;3.53;;;2.30;;
4244;SDS011;2136;48.502;9.194;2023-04-25T02:48:10;3.33;;;2.43;;
4244;SDS011;2136;48.502;9.194;2023-04-25T02:50:37;2.50;;;2.30;;
4244;SDS011;2136;48.502;9.194;2023-04-25T02:53:03;5.57;;;2.53;;
4244;SDS011;2136;48.502;9.194;2023-04-25T02:55:30;3.43;;;2.87;;
4244;SDS011;2136;48.502;9.194;2023-04-25T02:57:57;3.17;;;2.87;;
4244;SDS011;2136;48.502;9.194;2023-04-25T03:00:24;2.20;;;2.10;;
4244;SDS011;2136;48.502;9.194;2023-04-25T03:02:51;6.90;;;2.30;;
4244;SDS011;2136;48.502;9.194;2023-04-25T03:05:19;3.57;;;2.97;;
4244;SDS011;2136;48.502;9.194;2023-04-25T03:07:46;2.80;;;2.20;;
4244;SDS011;2136;48.502;9.194;2023-04-25T03:10:13;6.97;;;3.63;;
4244;SDS011;2136;48.502;9.194;2023-04-25T03:12:40;2.93;;;2.63;;
4244;SDS011;2136;48.502;9.194;2023-04-25T03:15:07;4.10;;;2.57;;
4244;SDS011;2136;48.502;9.194;2023-04-25T03:17:34;23.63;;;2.67;;
4244;SDS011;2136;48.502;9.194;2023-04-25T03:20:01;2.73;;;2.23;;
4244;SDS011;2136;48.502;9.194;2023-04-25T03:22:31;2.40;;;2.20;;
4244;SDS011;2136;48.502;9.194;2023-04-25T03:24:58;3.57;;;2.33;;
4244;SDS011;2136;48.502;9.194;2023-04-25T03:27:25;2.40;;;2.27;;
4244;SDS011;2136;48.502;9.194;2023-04-25T03:29:52;2.67;;;2.50;;
4244;SDS011;2136;48.502;9.194;2023-04-25T03:32:19;2.30;;;2.10;;
4244;SDS011;2136;48.502;9.194;2023-04-25T03:34:46;6.07;;;2.20;;
4244;SDS011;2136;48.502;9.194;2023-04-25T03:37:12;3.33;;;2.50;;
4244;SDS011;2136;48.502;9.194;2023-04-25T03:39:41;2.73;;;2.50;;
4244;SDS011;2136;48.502;9.194;2023-04-25T03:42:07;4.20;;;2.60;;
4244;SDS011;2136;48.502;9.194;2023-04-25T03:44:34;3.70;;;2.30;;
4244;SDS011;2136;48.502;9.194;2023-04-25T03:47:01;5.33;;;2.70;;
4244;SDS011;2136;48.502;9.194;2023-04-25T03:49:28;3.90;;;2.40;;
4244;SDS011;2136;48.502;9.194;2023-04-25T03:51:55;10.33;;;3.07;;
4244;SDS011;2136;48.502;9.194;2023-04-25T03:54:22;4.90;;;2.57;;
4244;SDS011;2136;48.502;9.194;2023-04-25T03:56:50;9.23;;;3.30;;
4244;SDS011;2136;48.502;9.194;2023-04-25T03:59:17;5.90;;;2.57;;
4244;SDS011;2136;48.502;9.194;2023-04-25T04:01:44;4.20;;;2.50;;
4244;SDS011;2136;48.502;9.194;2023-04-25T04:04:11;6.03;;;3.20;;
4244;SDS011;2136;48.502;9.194;2023-04-25T04:06:37;3.58;;;2.45;;
4244;SDS011;2136;48.502;9.194;2023-04-25T04:09:04;8.17;;;2.80;;
4244;SDS011;2136;48.502;9.194;2023-04-25T04:11:35;8.67;;;3.37;;
4244;SDS011;2136;48.502;9.194;2023-04-25T04:14:04;5.00;;;3.27;;
4244;SDS011;2136;48.502;9.194;2023-04-25T04:16:31;2.77;;;2.57;;
4244;SDS011;2136;48.502;9.194;2023-04-25T04:18:58;5.50;;;2.73;;
4244;SDS011;2136;48.502;9.194;2023-04-25T04:21:25;2.90;;;2.40;;
4244;SDS011;2136;48.502;9.194;2023-04-25T04:23:52;6.73;;;2.90;;
4244;SDS011;2136;48.502;9.194;2023-04-25T04:26:19;6.13;;;2.70;;
4244;SDS011;2136;48.502;9.194;2023-04-25T04:28:48;5.03;;;2.40;;
4244;SDS011;2136;48.502;9.194;2023-04-25T04:31:17;4.30;;;3.80;;
4244;SDS011;2136;48.502;9.194;2023-04-25T04:33:44;4.30;;;3.17;;
4244;SDS011;2136;48.502;9.194;2023-04-25T04:36:12;2.77;;;2.53;;
4244;SDS011;2136;48.502;9.194;2023-04-25T04:38:39;2.90;;;2.60;;
4244;SDS011;2136;48.502;9.194;2023-04-25T04:41:07;3.73;;;2.90;;
4244;SDS011;2136;48.502;9.194;2023-04-25T04:43:34;8.97;;;3.27;;
4244;SDS011;2136;48.502;9.194;2023-04-25T04:46:01;7.70;;;2.40;;
4244;SDS011;2136;48.502;9.194;2023-04-25T04:48:32;3.97;;;2.50;;
4244;SDS011;2136;48.502;9.194;2023-04-25T04:50:59;4.80;;;2.90;;
4244;SDS011;2136;48.502;9.194;2023-04-25T04:53:26;3.50;;;2.53;;
4244;SDS011;2136;48.502;9.194;2023-04-25T04:55:53;3.87;;;2.67;;
4244;SDS011;2136;48.502;9.194;2023-04-25T04:58:21;4.10;;;3.43;;
4244;SDS011;2136;48.502;9.194;2023-04-25T05:00:48;6.20;;;2.93;;
4244;SDS011;2136;48.502;9.194;2023-04-25T05:03:15;6.10;;;3.17;;
4244;SDS011;2136;48.502;9.194;2023-04-25T05:05:43;4.73;;;3.30;;
4244;SDS011;2136;48.502;9.194;2023-04-25T05:08:10;7.23;;;3.30;;
4244;SDS011;2136;48.502;9.194;2023-04-25T05:10:37;4.40;;;3.77;;
4244;SDS011;2136;48.502;9.194;2023-04-25T05:13:04;6.37;;;2.90;;
4244;SDS011;2136;48.502;9.194;2023-04-25T05:15:31;10.13;;;3.67;;
4244;SDS011;2136;48.502;9.194;2023-04-25T05:17:58;8.90;;;3.67;;
4244;SDS011;2136;48.502;9.194;2023-04-25T05:20:25;7.23;;;3.17;;
4244;SDS011;2136;48.502;9.194;2023-04-25T05:22:53;4.67;;;3.17;;
4244;SDS011;2136;48.502;9.194;2023-04-25T05:25:20;4.17;;;3.23;;
4244;SDS011;2136;48.502;9.194;2023-04-25T05:27:47;4.77;;;3.33;;
4244;SDS011;2136;48.502;9.194;2023-04-25T05:30:14;3.60;;;3.27;;
4244;SDS011;2136;48.502;9.194;2023-04-25T05:32:40;7.50;;;3.07;;
4244;SDS011;2136;48.502;9.194;2023-04-25T05:35:07;11.57;;;2.77;;
4244;SDS011;2136;48.502;9.194;2023-04-25T05:37:35;3.20;;;2.90;;
4244;SDS011;2136;48.502;9.194;2023-04-25T05:40:03;4.60;;;3.20;;
4244;SDS011;2136;48.502;9.194;2023-04-25T05:42:32;3.20;;;2.77;;
4244;SDS011;2136;48.502;9.194;2023-04-25T05:44:58;3.70;;;2.73;;
4244;SDS011;2136;48.502;9.194;2023-04-25T05:47:25;4.80;;;2.60;;
4244;SDS011;2136;48.502;9.194;2023-04-25T05:49:52;5.30;;;2.90;;
4244;SDS011;2136;48.502;9.194;2023-04-25T05:52:19;6.00;;;2.90;;
4244;SDS011;2136;48.502;9.194;2023-04-25T05:54:46;5.67;;;3.13;;
4244;SDS011;2136;48.502;9.194;2023-04-25T05:57:19;6.40;;;3.13;;
4244;SDS011;2136;48.502;9.194;2023-04-25T05:59:47;4.20;;;3.00;;
4244;SDS011;2136;48.502;9.194;2023-04-25T06:02:14;3.10;;;2.90;;
4244;SDS011;2136;48.502;9.194;2023-04-25T06:04:41;4.10;;;3.00;;
4244;SDS011;2136;48.502;9.194;2023-04-25T06:07:08;2.73;;;2.30;;
4244;SDS011;2136;48.502;9.194;2023-04-25T06:09:34;2.80;;;2.60;;
4244;SDS011;2136;48.502;9.194;2023-04-25T06:12:01;2.43;;;2.20;;
4244;SDS011;2136;48.502;9.194;2023-04-25T06:14:30;5.57;;;2.60;;
4244;SDS011;2136;48.502;9.194;2023-04-25T06:16:57;3.90;;;2.97;;
4244;SDS011;2136;48.502;9.194;2023-04-25T06:19:24;4.60;;;2.47;;
4244;SDS011;2136;48.502;9.194;2023-04-25T06:21:50;4.40;;;2.70;;
4244;SDS011;2136;48.502;9.194;2023-04-25T06:24:17;2.40;;;2.30;;
4244;SDS011;2136;48.502;9.194;2023-04-25T06:26:44;4.70;;;2.13;;
4244;SDS011;2136;48.502;9.194;2023-04-25T06:29:12;5.97;;;2.00;;
4244;SDS011;2136;48.502;9.194;2023-04-25T06:31:40;3.57;;;2.73;;
4244;SDS011;2136;48.502;9.194;2023-04-25T06:34:07;3.70;;;2.60;;
4244;SDS011;2136;48.502;9.194;2023-04-25T06:36:34;5.60;;;2.80;;
4244;SDS011;2136;48.502;9.194;2023-04-25T06:39:01;5.47;;;2.73;;
4244;SDS011;2136;48.502;9.194;2023-04-25T06:41:28;3.33;;;2.30;;
4244;SDS011;2136;48.502;9.194;2023-04-25T06:43:55;3.83;;;2.40;;
4244;SDS011;2136;48.502;9.194;2023-04-25T06:46:21;2.70;;;2.17;;
4244;SDS011;2136;48.502;9.194;2023-04-25T06:48:50;3.30;;;3.00;;
4244;SDS011;2136;48.502;9.194;2023-04-25T06:51:17;3.60;;;2.50;;
4244;SDS011;2136;48.502;9.194;2023-04-25T06:53:43;2.80;;;2.27;;
4244;SDS011;2136;48.502;9.194;2023-04-25T06:56:10;3.50;;;2.60;;
4244;SDS011;2136;48.502;9.194;2023-04-25T06:58:37;1.83;;;1.70;;
4244;SDS011;2136;48.502;9.194;2023-04-25T07:01:04;4.33;;;1.90;;
4244;SDS011;2136;48.502;9.194;2023-04-25T07:03:31;3.73;;;2.13;;
4244;SDS011;2136;48.502;9.194;2023-04-25T07:05:59;2.70;;;1.80;;
4244;SDS011;2136;48.502;9.194;2023-04-25T07:08:26;3.43;;;2.03;;
4244;SDS011;2136;48.502;9.194;2023-04-25T07:10:54;2.80;;;1.80;;
4244;SDS011;2136;48.502;9.194;2023-04-25T07:13:21;2.97;;;2.00;;
4244;SDS011;2136;48.502;9.194;2023-04-25T07:15:48;1.97;;;1.87;;
4244;SDS011;2136;48.502;9.194;2023-04-25T07:18:15;3.70;;;2.30;;
4244;SDS011;2136;48.502;9.194;2023-04-25T07:20:41;3.97;;;2.53;;
4244;SDS011;2136;48.502;9.194;2023-04-25T07:23:10;2.37;;;2.17;;
4244;SDS011;2136;48.502;9.194;2023-04-25T07:25:37;7.03;;;3.73;;
4244;SDS011;2136;48.502;9.194;2023-04-25T07:28:03;4.83;;;2.90;;
4244;SDS011;2136;48.502;9.194;2023-04-25T07:30:30;5.53;;;2.67;;
4244;SDS011;2136;48.502;9.194;2023-04-25T07:32:58;5.10;;;3.13;;
4244;SDS011;2136;48.502;9.194;2023-04-25T07:35:25;3.57;;;2.07;;
4244;SDS011;2136;48.502;9.194;2023-04-25T07:37:52;2.30;;;2.10;;
4244;SDS011;2136;48.502;9.194;2023-04-25T07:40:20;2.20;;;2.10;;
4244;SDS011;2136;48.502;9.194;2023-04-25T07:42:47;3.70;;;2.43;;
4244;SDS011;2136;48.502;9.194;2023-04-25T07:45:14;2.10;;;2.00;;
4244;SDS011;2136;48.502;9.194;2023-04-25T07:47:41;2.53;;;2.33;;
4244;SDS011;2136;48.502;9.194;2023-04-25T07:50:08;2.80;;;2.27;;
4244;SDS011;2136;48.502;9.194;2023-04-25T07:52:36;2.77;;;2.40;;
4244;SDS011;2136;48.502;9.194;2023-04-25T07:55:03;3.80;;;2.17;;
4244;SDS011;2136;48.502;9.194;2023-04-25T07:57:31;2.33;;;2.13;;
4244;SDS011;2136;48.502;9.194;2023-04-25T07:59:58;4.80;;;2.13;;
4244;SDS011;2136;48.502;9.194;2023-04-25T08:02:25;3.40;;;2.30;;
4244;SDS011;2136;48.502;9.194;2023-04-25T08:04:53;2.23;;;2.13;;
4244;SDS011;2136;48.502;9.194;2023-04-25T08:07:20;2.70;;;2.50;;
4244;SDS011;2136;48.502;9.194;2023-04-25T08:09:46;2.80;;;2.60;;
4244;SDS011;2136;48.502;9.194;2023-04-25T08:12:13;3.90;;;2.60;;
4244;SDS011;2136;48.502;9.194;2023-04-25T08:14:41;5.00;;;2.77;;
4244;SDS011;2136;48.502;9.194;2023-04-25T08:17:09;8.57;;;2.40;;
4244;SDS011;2136;48.502;9.194;2023-04-25T08:19:36;2.70;;;2.50;;
4244;SDS011;2136;48.502;9.194;2023-04-25T08:22:03;3.63;;;2.70;;
4244;SDS011;2136;48.502;9.194;2023-04-25T08:24:30;3.03;;;2.60;;
4244;SDS011;2136;48.502;9.194;2023-04-25T08:26:56;4.40;;;2.57;;
4244;SDS011;2136;48.502;9.194;2023-04-25T08:29:24;3.60;;;2.67;;
4244;SDS011;2136;48.502;9.194;2023-04-25T08:31:52;3.63;;;3.30;;
4244;SDS011;2136;48.502;9.194;2023-04-25T08:34:19;8.53;;;3.20;;
4244;SDS011;2136;48.502;9.194;2023-04-25T08:36:46;4.17;;;3.00;;
4244;SDS011;2136;48.502;9.194;2023-04-25T08:39:12;3.57;;;2.73;;
4244;SDS011;2136;48.502;9.194;2023-04-25T08:41:40;4.17;;;2.80;;
4244;SDS011;2136;48.502;9.194;2023-04-25T08:44:07;3.80;;;2.47;;
4244;SDS011;2136;48.502;9.194;2023-04-25T08:46:37;4.87;;;2.87;;
4244;SDS011;2136;48.502;9.194;2023-04-25T08:49:06;2.90;;;2.60;;
4244;SDS011;2136;48.502;9.194;2023-04-25T08:51:34;4.80;;;2.93;;
4244;SDS011;2136;48.502;9.194;2023-04-25T08:54:08;6.17;;;3.17;;
4244;SDS011;2136;48.502;9.194;2023-04-25T08:56:37;2.73;;;2.53;;
4244;SDS011;2136;48.502;9.194;2023-04-25T08:59:06;5.03;;;3.33;;
4244;SDS011;2136;48.502;9.194;2023-04-25T09:01:34;2.67;;;2.47;;
4244;SDS011;2136;48.502;9.194;2023-04-25T09:04:01;3.80;;;3.00;;
4244;SDS011;2136;48.502;9.194;2023-04-25T09:06:29;3.30;;;2.97;;
4244;SDS011;2136;48.502;9.194;2023-04-25T09:09:00;3.60;;;3.30;;
4244;SDS011;2136;48.502;9.194;2023-04-25T09:11:30;3.40;;;3.10;;
4244;SDS011;2136;48.502;9.194;2023-04-25T09:14:10;4.23;;;3.77;;
4244;SDS011;2136;48.502;9.194;2023-04-25T09:19:28;4.27;;;2.67;;
4244;SDS011;2136;48.502;9.194;2023-04-25T09:21:57;3.20;;;2.83;;
4244;SDS011;2136;48.502;9.194;2023-04-25T09:24:31;3.30;;;2.93;;
4244;SDS011;2136;48.502;9.194;2023-04-25T09:26:59;4.10;;;2.60;;
4244;SDS011;2136;48.502;9.194;2023-04-25T09:29:29;3.33;;;2.80;;
4244;SDS011;2136;48.502;9.194;2023-04-25T09:32:10;2.33;;;2.13;;
4244;SDS011;2136;48.502;9.194;2023-04-25T09:34:38;4.00;;;2.47;;
4244;SDS011;2136;48.502;9.194;2023-04-25T09:37:09;2.63;;;2.53;;
4244;SDS011;2136;48.502;9.194;2023-04-25T09:39:37;4.37;;;1.97;;
4244;SDS011;2136;48.502;9.194;2023-04-25T09:42:04;2.40;;;2.20;;
4244;SDS011;2136;48.502;9.194;2023-04-25T09:44:31;2.97;;;2.77;;
4244;SDS011;2136;48.502;9.194;2023-04-25T09:46:58;2.60;;;2.40;;
4244;SDS011;2136;48.502;9.194;2023-04-25T09:49:25;2.17;;;2.07;;
4244;SDS011;2136;48.502;9.194;2023-04-25T09:51:56;3.63;;;2.20;;
4244;SDS011;2136;48.502;9.194;2023-04-25T09:54:24;2.73;;;2.53;;
4244;SDS011;2136;48.502;9.194;2023-04-25T09:56:52;2.37;;;2.17;;
4244;SDS011;2136;48.502;9.194;2023-04-25T09:59:20;2.03;;;1.93;;
4244;SDS011;2136;48.502;9.194;2023-04-25T10:01:48;3.10;;;1.90;;
4244;SDS011;2136;48.502;9.194;2023-04-25T10:04:17;1.80;;;1.70;;
4244;SDS011;2136;48.502;9.194;2023-04-25T10:06:46;3.37;;;2.37;;
4244;SDS011;2136;48.502;9.194;2023-04-25T10:09:15;8.53;;;4.70;;
4244;SDS011;2136;48.502;9.194;2023-04-25T10:11:45;3.63;;;2.33;;
4244;SDS011;2136;48.502;9.194;2023-04-25T10:14:13;1.73;;;1.63;;
4244;SDS011;2136;48.502;9.194;2023-04-25T10:16:42;1.70;;;1.60;;
4244;SDS011;2136;48.502;9.194;2023-04-25T10:19:09;2.90;;;2.50;;
4244;SDS011;2136;48.502;9.194;2023-04-25T10:21:36;2.73;;;2.53;;
4244;SDS011;2136;48.502;9.194;2023-04-25T10:24:12;2.67;;;2.47;;
4244;SDS011;2136;48.502;9.194;2023-04-25T10:26:40;2.17;;;2.07;;
4244;SDS011;2136;48.502;9.194;2023-04-25T10:29:08;1.30;;;1.30;;
4244;SDS011;2136;48.502;9.194;2023-04-25T10:31:44;1.50;;;1.40;;
4244;SDS011;2136;48.502;9.194;2023-04-25T10:34:11;1.80;;;1.70;;
4244;SDS011;2136;48.502;9.194;2023-04-25T10:36:38;2.10;;;2.00;;
4244;SDS011;2136;48.502;9.194;2023-04-25T10:39:06;2.20;;;2.00;;
4244;SDS011;2136;48.502;9.194;2023-04-25T10:41:45;1.63;;;1.53;;
4244;SDS011;2136;48.502;9.194;2023-04-25T10:44:14;1.60;;;1.50;;
4244;SDS011;2136;48.502;9.194;2023-04-25T10:46:41;1.57;;;1.47;;
4244;SDS011;2136;48.502;9.194;2023-04-25T10:49:11;1.63;;;1.07;;
4244;SDS011;2136;48.502;9.194;2023-04-25T10:52:10;0.87;;;0.87;;
4244;SDS011;2136;48.502;9.194;2023-04-25T10:54:40;1.87;;;1.77;;
4244;SDS011;2136;48.502;9.194;2023-04-25T10:57:08;3.30;;;2.57;;
4244;SDS011;2136;48.502;9.194;2023-04-25T10:59:55;2.03;;;1.40;;
4244;SDS011;2136;48.502;9.194;2023-04-25T11:02:26;1.13;;;1.13;;
4244;SDS011;2136;48.502;9.194;2023-04-25T11:04:54;0.90;;;0.90;;
4244;SDS011;2136;48.502;9.194;2023-04-25T11:07:23;1.67;;;1.03;;
4244;SDS011;2136;48.502;9.194;2023-04-25T11:10:00;1.90;;;1.80;;
4244;SDS011;2136;48.502;9.194;2023-04-25T11:12:29;1.03;;;1.03;;
4244;SDS011;2136;48.502;9.194;2023-04-25T11:15:01;0.90;;;0.90;;
4244;SDS011;2136;48.502;9.194;2023-04-25T11:17:29;1.30;;;1.30;;
4244;SDS011;2136;48.502;9.194;2023-04-25T11:19:56;0.90;;;0.90;;
4244;SDS011;2136;48.502;9.194;2023-04-25T11:22:23;1.17;;;1.07;;
4244;SDS011;2136;48.502;9.194;2023-04-25T11:24:52;1.57;;;0.83;;
4244;SDS011;2136;48.502;9.194;2023-04-25T11:27:19;1.00;;;0.90;;
4244;SDS011;2136;48.502;9.194;2023-04-25T11:29:46;1.27;;;0.80;;
4244;SDS011;2136;48.502;9.194;2023-04-25T11:32:16;0.93;;;0.93;;
4244;SDS011;2136;48.502;9.194;2023-04-25T11:34:43;0.83;;;0.83;;
4244;SDS011;2136;48.502;9.194;2023-04-25T11:37:11;0.93;;;0.93;;
4244;SDS011;2136;48.502;9.194;2023-04-25T11:39:39;1.00;;;1.00;;
4244;SDS011;2136;48.502;9.194;2023-04-25T11:42:10;0.80;;;0.80;;
4244;SDS011;2136;48.502;9.194;2023-04-25T11:44:37;1.03;;;1.03;;
4244;SDS011;2136;48.502;9.194;2023-04-25T11:47:04;12.37;;;2.53;;
4244;SDS011;2136;48.502;9.194;2023-04-25T11:49:32;3.90;;;1.17;;
4244;SDS011;2136;48.502;9.194;2023-04-25T11:52:00;0.90;;;0.90;;
4244;SDS011;2136;48.502;9.194;2023-04-25T11:54:27;0.80;;;0.80;;
4244;SDS011;2136;48.502;9.194;2023-04-25T11:56:54;0.83;;;0.83;;
4244;SDS011;2136;48.502;9.194;2023-04-25T11:59:22;1.00;;;0.90;;
4244;SDS011;2136;48.502;9.194;2023-04-25T12:01:51;1.30;;;1.00;;
4244;SDS011;2136;48.502;9.194;2023-04-25T12:04:19;2.93;;;0.80;;
4244;SDS011;2136;48.502;9.194;2023-04-25T12:06:48;1.03;;;0.93;;
4244;SDS011;2136;48.502;9.194;2023-04-25T12:09:16;1.17;;;1.10;;
4244;SDS011;2136;48.502;9.194;2023-04-25T12:11:47;2.57;;;0.83;;
4244;SDS011;2136;48.502;9.194;2023-04-25T12:14:20;0.70;;;0.70;;
4244;SDS011;2136;48.502;9.194;2023-04-25T12:16:49;0.60;;;0.60;;
4244;SDS011;2136;48.502;9.194;2023-04-25T12:19:16;0.80;;;0.80;;
4244;SDS011;2136;48.502;9.194;2023-04-25T12:21:45;1.00;;;0.80;;
4244;SDS011;2136;48.502;9.194;2023-04-25T12:24:15;1.27;;;1.23;;
4244;SDS011;2136;48.502;9.194;2023-04-25T12:26:48;0.90;;;0.90;;
4244;SDS011;2136;48.502;9.194;2023-04-25T12:29:16;1.30;;;1.20;;
4244;SDS011;2136;48.502;9.194;2023-04-25T12:31:43;0.70;;;0.70;;
4244;SDS011;2136;48.502;9.194;2023-04-25T12:34:11;0.77;;;0.77;;
4244;SDS011;2136;48.502;9.194;2023-04-25T12:36:38;1.60;;;1.43;;
4244;SDS011;2136;48.502;9.194;2023-04-25T12:39:06;1.77;;;1.63;;
4244;SDS011;2136;48.502;9.194;2023-04-25T12:41:33;1.57;;;1.47;;
4244;SDS011;2136;48.502;9.194;2023-04-25T12:44:00;1.67;;;1.13;;
4244;SDS011;2136;48.502;9.194;2023-04-25T12:46:27;0.90;;;0.90;;
4244;SDS011;2136;48.502;9.194;2023-04-25T12:48:54;0.93;;;0.90;;
4244;SDS011;2136;48.502;9.194;2023-04-25T12:51:21;23.60;;;6.57;;
4244;SDS011;2136;48.502;9.194;2023-04-25T12:53:50;12.50;;;2.37;;
4244;SDS011;2136;48.502;9.194;2023-04-25T12:56:18;11.20;;;1.87;;
4244;SDS011;2136;48.502;9.194;2023-04-25T12:58:45;1.10;;;1.00;;
4244;SDS011;2136;48.502;9.194;2023-04-25T13:01:13;1.30;;;1.20;;
4244;SDS011;2136;48.502;9.194;2023-04-25T13:03:40;1.07;;;1.03;;
4244;SDS011;2136;48.502;9.194;2023-04-25T13:06:07;1.27;;;1.10;;
4244;SDS011;2136;48.502;9.194;2023-04-25T13:08:34;3.13;;;0.87;;
4244;SDS011;2136;48.502;9.194;2023-04-25T13:11:01;1.03;;;1.03;;
4244;SDS011;2136;48.502;9.194;2023-04-25T13:13:31;1.10;;;1.10;;
4244;SDS011;2136;48.502;9.194;2023-04-25T13:15:59;0.97;;;0.97;;
4244;SDS011;2136;48.502;9.194;2023-04-25T13:18:26;1.47;;;1.20;;
4244;SDS011;2136;48.502;9.194;2023-04-25T13:20:53;0.90;;;0.90;;
4244;SDS011;2136;48.502;9.194;2023-04-25T13:23:20;1.10;;;1.10;;
4244;SDS011;2136;48.502;9.194;2023-04-25T13:25:47;1.00;;;1.00;;
4244;SDS011;2136;48.502;9.194;2023-04-25T13:28:14;1.20;;;1.10;;
4244;SDS011;2136;48.502;9.194;2023-04-25T13:30:43;1.20;;;1.20;;
4244;SDS011;2136;48.502;9.194;2023-04-25T13:33:10;1.10;;;1.10;;
4244;SDS011;2136;48.502;9.194;2023-04-25T13:36:47;1.53;;;1.43;;
4244;SDS011;2136;48.502;9.194;2023-04-25T13:39:13;1.40;;;1.30;;
4244;SDS011;2136;48.502;9.194;2023-04-25T13:41:40;1.60;;;1.50;;
4244;SDS011;2136;48.502;9.194;2023-04-25T13:44:07;2.20;;;1.37;;
4244;SDS011;2136;48.502;9.194;2023-04-25T13:46:34;1.70;;;1.13;;
4244;SDS011;2136;48.502;9.194;2023-04-25T13:49:02;1.60;;;1.53;;
4244;SDS011;2136;48.502;9.194;2023-04-25T13:51:29;1.97;;;1.70;;
4244;SDS011;2136;48.502;9.194;2023-04-25T13:53:57;1.40;;;1.37;;
4244;SDS011;2136;48.502;9.194;2023-04-25T13:56:24;1.27;;;1.17;;
4244;SDS011;2136;48.502;9.194;2023-04-25T13:58:51;1.53;;;1.43;;
4244;SDS011;2136;48.502;9.194;2023-04-25T14:01:18;1.50;;;1.40;;
4244;SDS011;2136;48.502;9.194;2023-04-25T14:03:46;1.63;;;1.52;;
4244;SDS011;2136;48.502;9.194;2023-04-25T14:06:12;1.50;;;1.40;;
4244;SDS011;2136;48.502;9.194;2023-04-25T14:08:46;1.33;;;1.23;;
4244;SDS011;2136;48.502;9.194;2023-04-25T14:11:14;1.50;;;1.43;;
4244;SDS011;2136;48.502;9.194;2023-04-25T14:13:43;1.90;;;1.80;;
4244;SDS011;2136;48.502;9.194;2023-04-25T14:16:10;1.83;;;1.73;;
4244;SDS011;2136;48.502;9.194;2023-04-25T14:18:37;4.53;;;1.70;;
4244;SDS011;2136;48.502;9.194;2023-04-25T14:21:03;1.70;;;1.60;;
4244;SDS011;2136;48.502;9.194;2023-04-25T14:23:30;2.50;;;2.30;;
4244;SDS011;2136;48.502;9.194;2023-04-25T14:25:57;1.60;;;1.50;;
4244;SDS011;2136;48.502;9.194;2023-04-25T14:28:25;1.53;;;1.40;;
4244;SDS011;2136;48.502;9.194;2023-04-25T14:30:52;2.00;;;1.90;;
4244;SDS011;2136;48.502;9.194;2023-04-25T14:33:19;3.23;;;2.07;;
4244;SDS011;2136;48.502;9.194;2023-04-25T14:35:46;1.77;;;1.67;;
4244;SDS011;2136;48.502;9.194;2023-04-25T14:38:13;2.73;;;1.83;;
4244;SDS011;2136;48.502;9.194;2023-04-25T14:40:40;5.37;;;2.30;;
4244;SDS011;2136;48.502;9.194;2023-04-25T14:43:07;2.93;;;2.73;;
4244;SDS011;2136;48.502;9.194;2023-04-25T14:45:35;2.87;;;2.63;;
4244;SDS011;2136;48.502;9.194;2023-04-25T14:48:02;3.13;;;2.30;;
4244;SDS011;2136;48.502;9.194;2023-04-25T14:50:29;3.30;;;2.77;;
4244;SDS011;2136;48.502;9.194;2023-04-25T14:52:56;4.00;;;2.80;;
4244;SDS011;2136;48.502;9.194;2023-04-25T14:55:25;3.37;;;3.17;;
4244;SDS011;2136;48.502;9.194;2023-04-25T14:57:52;2.70;;;2.60;;
4244;SDS011;2136;48.502;9.194;2023-04-25T15:00:20;3.67;;;2.43;;
4244;SDS011;2136;48.502;9.194;2023-04-25T15:02:48;3.27;;;2.83;;
4244;SDS011;2136;48.502;9.194;2023-04-25T15:05:15;2.80;;;2.60;;
4244;SDS011;2136;48.502;9.194;2023-04-25T15:07:42;4.07;;;3.43;;
4244;SDS011;2136;48.502;9.194;2023-04-25T15:10:10;3.00;;;2.80;;
4244;SDS011;2136;48.502;9.194;2023-04-25T15:12:38;4.20;;;3.80;;
4244;SDS011;2136;48.502;9.194;2023-04-25T15:15:06;4.50;;;3.73;;
4244;SDS011;2136;48.502;9.194;2023-04-25T15:17:36;6.03;;;4.20;;
4244;SDS011;2136;48.502;9.194;2023-04-25T15:20:05;4.90;;;4.10;;
4244;SDS011;2136;48.502;9.194;2023-04-25T15:22:34;4.63;;;4.23;;